sensor_id;sensor_type;location;lat;lon;timestamp;P1;durP1;ratioP1;P2;durP2;ratioP2
64633;SDS011;51043;52.406;9.690;2024-02-23T00:01:27;3.90;;;1.27;;
64633;SDS011;51043;52.406;9.690;2024-02-23T00:03:55;4.33;;;1.63;;
64633;SDS011;51043;52.406;9.690;2024-02-23T00:06:25;3.53;;;1.30;;
64633;SDS011;51043;52.406;9.690;2024-02-23T00:08:54;2.87;;;1.40;;
64633;SDS011;51043;52.406;9.690;2024-02-23T00:11:23;4.90;;;1.53;;
64633;SDS011;51043;52.406;9.690;2024-02-23T00:13:51;5.10;;;1.67;;
64633;SDS011;51043;52.406;9.690;2024-02-23T00:16:19;5.40;;;1.23;;
64633;SDS011;51043;52.406;9.690;2024-02-23T00:18:50;4.50;;;1.50;;
64633;SDS011;51043;52.406;9.690;2024-02-23T00:21:18;5.37;;;1.50;;
64633;SDS011;51043;52.406;9.690;2024-02-23T00:23:49;3.50;;;1.30;;
64633;SDS011;51043;52.406;9.690;2024-02-23T00:26:17;2.37;;;1.20;;
64633;SDS011;51043;52.406;9.690;2024-02-23T00:28:45;5.27;;;1.47;;
64633;SDS011;51043;52.406;9.690;2024-02-23T00:31:13;4.63;;;1.53;;
64633;SDS011;51043;52.406;9.690;2024-02-23T00:33:41;1.37;;;0.90;;
64633;SDS011;51043;52.406;9.690;2024-02-23T00:36:09;6.60;;;1.57;;
64633;SDS011;51043;52.406;9.690;2024-02-23T00:38:37;6.33;;;1.50;;
64633;SDS011;51043;52.406;9.690;2024-02-23T00:41:07;4.53;;;1.30;;
64633;SDS011;51043;52.406;9.690;2024-02-23T00:43:37;4.27;;;1.17;;
64633;SDS011;51043;52.406;9.690;2024-02-23T00:46:06;3.17;;;1.17;;
64633;SDS011;51043;52.406;9.690;2024-02-23T00:48:34;5.17;;;1.37;;
64633;SDS011;51043;52.406;9.690;2024-02-23T00:51:03;7.30;;;1.53;;
64633;SDS011;51043;52.406;9.690;2024-02-23T00:53:31;1.67;;;1.03;;
64633;SDS011;51043;52.406;9.690;2024-02-23T00:55:59;2.40;;;1.07;;
64633;SDS011;51043;52.406;9.690;2024-02-23T00:58:28;4.67;;;1.30;;
64633;SDS011;51043;52.406;9.690;2024-02-23T01:00:57;4.17;;;1.33;;
64633;SDS011;51043;52.406;9.690;2024-02-23T01:03:25;2.00;;;1.20;;
64633;SDS011;51043;52.406;9.690;2024-02-23T01:05:53;1.57;;;0.83;;
64633;SDS011;51043;52.406;9.690;2024-02-23T01:08:22;3.33;;;1.00;;
64633;SDS011;51043;52.406;9.690;2024-02-23T01:10:50;1.20;;;1.00;;
64633;SDS011;51043;52.406;9.690;2024-02-23T01:13:19;3.77;;;0.97;;
64633;SDS011;51043;52.406;9.690;2024-02-23T01:15:49;2.13;;;1.13;;
64633;SDS011;51043;52.406;9.690;2024-02-23T01:18:18;1.97;;;0.90;;
64633;SDS011;51043;52.406;9.690;2024-02-23T01:20:48;5.13;;;2.10;;
64633;SDS011;51043;52.406;9.690;2024-02-23T01:23:16;1.40;;;1.07;;
64633;SDS011;51043;52.406;9.690;2024-02-23T01:25:44;4.30;;;1.03;;
64633;SDS011;51043;52.406;9.690;2024-02-23T01:28:12;2.70;;;1.17;;
64633;SDS011;51043;52.406;9.690;2024-02-23T01:30:40;0.80;;;0.80;;
64633;SDS011;51043;52.406;9.690;2024-02-23T01:33:10;1.43;;;0.70;;
64633;SDS011;51043;52.406;9.690;2024-02-23T01:35:38;1.37;;;0.90;;
64633;SDS011;51043;52.406;9.690;2024-02-23T01:38:06;0.80;;;0.80;;
64633;SDS011;51043;52.406;9.690;2024-02-23T01:40:34;1.23;;;0.90;;
64633;SDS011;51043;52.406;9.690;2024-02-23T01:43:03;1.30;;;0.63;;
64633;SDS011;51043;52.406;9.690;2024-02-23T01:45:31;0.50;;;0.50;;
64633;SDS011;51043;52.406;9.690;2024-02-23T01:48:00;0.70;;;0.70;;
64633;SDS011;51043;52.406;9.690;2024-02-23T01:50:30;0.67;;;0.67;;
64633;SDS011;51043;52.406;9.690;2024-02-23T01:53:00;0.70;;;0.60;;
64633;SDS011;51043;52.406;9.690;2024-02-23T01:55:29;0.70;;;0.70;;
64633;SDS011;51043;52.406;9.690;2024-02-23T01:57:59;1.17;;;1.07;;
64633;SDS011;51043;52.406;9.690;2024-02-23T02:00:28;0.97;;;0.60;;
64633;SDS011;51043;52.406;9.690;2024-02-23T02:02:57;1.23;;;0.57;;
64633;SDS011;51043;52.406;9.690;2024-02-23T02:05:27;0.50;;;0.50;;
64633;SDS011;51043;52.406;9.690;2024-02-23T02:07:57;0.50;;;0.50;;
64633;SDS011;51043;52.406;9.690;2024-02-23T02:10:26;0.60;;;0.60;;
64633;SDS011;51043;52.406;9.690;2024-02-23T02:12:54;1.93;;;1.20;;
64633;SDS011;51043;52.406;9.690;2024-02-23T02:15:23;0.60;;;0.60;;
64633;SDS011;51043;52.406;9.690;2024-02-23T02:17:51;0.73;;;0.73;;
64633;SDS011;51043;52.406;9.690;2024-02-23T02:20:23;0.83;;;0.60;;
64633;SDS011;51043;52.406;9.690;2024-02-23T02:22:52;0.60;;;0.60;;
64633;SDS011;51043;52.406;9.690;2024-02-23T02:25:21;0.80;;;0.60;;
64633;SDS011;51043;52.406;9.690;2024-02-23T02:27:50;0.70;;;0.70;;
64633;SDS011;51043;52.406;9.690;2024-02-23T02:30:18;1.40;;;0.50;;
64633;SDS011;51043;52.406;9.690;2024-02-23T02:32:48;0.60;;;0.60;;
64633;SDS011;51043;52.406;9.690;2024-02-23T02:35:16;0.50;;;0.50;;
64633;SDS011;51043;52.406;9.690;2024-02-23T02:37:45;0.50;;;0.50;;
64633;SDS011;51043;52.406;9.690;2024-02-23T02:40:15;0.50;;;0.50;;
64633;SDS011;51043;52.406;9.690;2024-02-23T02:42:46;0.50;;;0.50;;
64633;SDS011;51043;52.406;9.690;2024-02-23T02:45:14;0.50;;;0.50;;
64633;SDS011;51043;52.406;9.690;2024-02-23T02:47:45;1.77;;;0.80;;
64633;SDS011;51043;52.406;9.690;2024-02-23T02:50:14;0.70;;;0.70;;
64633;SDS011;51043;52.406;9.690;2024-02-23T02:52:43;0.50;;;0.50;;
64633;SDS011;51043;52.406;9.690;2024-02-23T02:55:11;0.60;;;0.60;;
64633;SDS011;51043;52.406;9.690;2024-02-23T02:57:39;0.60;;;0.60;;
64633;SDS011;51043;52.406;9.690;2024-02-23T03:00:11;1.30;;;0.80;;
64633;SDS011;51043;52.406;9.690;2024-02-23T03:02:39;2.23;;;0.80;;
64633;SDS011;51043;52.406;9.690;2024-02-23T03:05:07;0.70;;;0.70;;
64633;SDS011;51043;52.406;9.690;2024-02-23T03:07:36;0.70;;;0.70;;
64633;SDS011;51043;52.406;9.690;2024-02-23T03:10:05;2.37;;;1.27;;
64633;SDS011;51043;52.406;9.690;2024-02-23T03:12:34;2.13;;;1.00;;
64633;SDS011;51043;52.406;9.690;2024-02-23T03:15:03;1.97;;;1.00;;
64633;SDS011;51043;52.406;9.690;2024-02-23T03:17:35;1.17;;;1.03;;
64633;SDS011;51043;52.406;9.690;2024-02-23T03:20:03;0.70;;;0.70;;
64633;SDS011;51043;52.406;9.690;2024-02-23T03:22:37;0.80;;;0.80;;
64633;SDS011;51043;52.406;9.690;2024-02-23T03:25:05;1.83;;;1.00;;
64633;SDS011;51043;52.406;9.690;2024-02-23T03:27:36;4.33;;;1.20;;
64633;SDS011;51043;52.406;9.690;2024-02-23T03:30:04;1.23;;;0.90;;
64633;SDS011;51043;52.406;9.690;2024-02-23T03:32:35;1.63;;;1.17;;
64633;SDS011;51043;52.406;9.690;2024-02-23T03:35:05;1.47;;;1.10;;
64633;SDS011;51043;52.406;9.690;2024-02-23T03:37:34;1.33;;;0.93;;
64633;SDS011;51043;52.406;9.690;2024-02-23T03:40:03;1.17;;;0.97;;
64633;SDS011;51043;52.406;9.690;2024-02-23T03:42:32;3.30;;;1.53;;
64633;SDS011;51043;52.406;9.690;2024-02-23T03:45:00;3.30;;;1.30;;
64633;SDS011;51043;52.406;9.690;2024-02-23T03:47:28;2.13;;;1.20;;
64633;SDS011;51043;52.406;9.690;2024-02-23T03:49:58;2.50;;;1.10;;
64633;SDS011;51043;52.406;9.690;2024-02-23T03:52:26;2.33;;;1.23;;
64633;SDS011;51043;52.406;9.690;2024-02-23T03:54:54;1.90;;;1.17;;
64633;SDS011;51043;52.406;9.690;2024-02-23T03:57:22;2.47;;;1.20;;
64633;SDS011;51043;52.406;9.690;2024-02-23T03:59:51;1.50;;;1.00;;
64633;SDS011;51043;52.406;9.690;2024-02-23T04:02:20;1.97;;;1.37;;
64633;SDS011;51043;52.406;9.690;2024-02-23T04:04:49;2.67;;;1.40;;
64633;SDS011;51043;52.406;9.690;2024-02-23T04:07:18;2.57;;;1.40;;
64633;SDS011;51043;52.406;9.690;2024-02-23T04:09:46;1.87;;;1.23;;
64633;SDS011;51043;52.406;9.690;2024-02-23T04:12:18;5.47;;;1.50;;
64633;SDS011;51043;52.406;9.690;2024-02-23T04:14:47;2.40;;;1.40;;
64633;SDS011;51043;52.406;9.690;2024-02-23T04:17:15;3.40;;;1.53;;
64633;SDS011;51043;52.406;9.690;2024-02-23T04:19:44;3.33;;;1.40;;
64633;SDS011;51043;52.406;9.690;2024-02-23T04:22:12;3.30;;;1.50;;
64633;SDS011;51043;52.406;9.690;2024-02-23T04:24:41;4.53;;;1.77;;
64633;SDS011;51043;52.406;9.690;2024-02-23T04:27:09;1.77;;;1.20;;
64633;SDS011;51043;52.406;9.690;2024-02-23T04:29:40;3.53;;;1.40;;
64633;SDS011;51043;52.406;9.690;2024-02-23T04:32:08;3.27;;;1.70;;
64633;SDS011;51043;52.406;9.690;2024-02-23T04:34:36;4.20;;;1.70;;
64633;SDS011;51043;52.406;9.690;2024-02-23T04:37:05;2.40;;;1.47;;
64633;SDS011;51043;52.406;9.690;2024-02-23T04:39:34;1.87;;;1.20;;
64633;SDS011;51043;52.406;9.690;2024-02-23T04:42:05;4.00;;;1.63;;
64633;SDS011;51043;52.406;9.690;2024-02-23T04:44:36;2.60;;;1.60;;
64633;SDS011;51043;52.406;9.690;2024-02-23T04:47:04;3.67;;;1.60;;
64633;SDS011;51043;52.406;9.690;2024-02-23T04:49:32;4.30;;;1.70;;
64633;SDS011;51043;52.406;9.690;2024-02-23T04:52:00;2.73;;;1.37;;
64633;SDS011;51043;52.406;9.690;2024-02-23T04:54:28;3.77;;;1.50;;
64633;SDS011;51043;52.406;9.690;2024-02-23T04:56:56;1.97;;;1.33;;
64633;SDS011;51043;52.406;9.690;2024-02-23T04:59:26;1.97;;;1.10;;
64633;SDS011;51043;52.406;9.690;2024-02-23T05:01:54;2.47;;;1.70;;
64633;SDS011;51043;52.406;9.690;2024-02-23T05:04:22;5.20;;;1.90;;
64633;SDS011;51043;52.406;9.690;2024-02-23T05:06:54;4.23;;;1.67;;
64633;SDS011;51043;52.406;9.690;2024-02-23T05:09:23;3.50;;;1.63;;
64633;SDS011;51043;52.406;9.690;2024-02-23T05:11:51;3.27;;;1.40;;
64633;SDS011;51043;52.406;9.690;2024-02-23T05:14:19;3.47;;;1.40;;
64633;SDS011;51043;52.406;9.690;2024-02-23T05:16:52;1.67;;;1.03;;
64633;SDS011;51043;52.406;9.690;2024-02-23T05:19:21;2.90;;;1.40;;
64633;SDS011;51043;52.406;9.690;2024-02-23T05:21:51;2.07;;;1.20;;
64633;SDS011;51043;52.406;9.690;2024-02-23T05:24:20;2.83;;;1.30;;
64633;SDS011;51043;52.406;9.690;2024-02-23T05:26:50;7.97;;;1.60;;
64633;SDS011;51043;52.406;9.690;2024-02-23T05:29:18;2.90;;;1.60;;
64633;SDS011;51043;52.406;9.690;2024-02-23T05:31:52;3.87;;;1.40;;
64633;SDS011;51043;52.406;9.690;2024-02-23T05:34:20;6.50;;;1.70;;
64633;SDS011;51043;52.406;9.690;2024-02-23T05:36:50;1.90;;;1.10;;
64633;SDS011;51043;52.406;9.690;2024-02-23T05:39:21;3.10;;;1.23;;
64633;SDS011;51043;52.406;9.690;2024-02-23T05:41:50;3.13;;;1.33;;
64633;SDS011;51043;52.406;9.690;2024-02-23T05:44:18;2.80;;;1.30;;
64633;SDS011;51043;52.406;9.690;2024-02-23T05:46:46;3.67;;;1.20;;
64633;SDS011;51043;52.406;9.690;2024-02-23T05:49:15;5.80;;;1.90;;
64633;SDS011;51043;52.406;9.690;2024-02-23T05:51:43;2.47;;;1.40;;
64633;SDS011;51043;52.406;9.690;2024-02-23T05:54:11;6.73;;;1.87;;
64633;SDS011;51043;52.406;9.690;2024-02-23T05:56:40;5.00;;;1.53;;
64633;SDS011;51043;52.406;9.690;2024-02-23T05:59:07;2.60;;;1.27;;
64633;SDS011;51043;52.406;9.690;2024-02-23T06:01:36;5.70;;;1.90;;
64633;SDS011;51043;52.406;9.690;2024-02-23T06:04:05;4.50;;;1.40;;
64633;SDS011;51043;52.406;9.690;2024-02-23T06:06:35;6.43;;;1.60;;
64633;SDS011;51043;52.406;9.690;2024-02-23T06:09:03;1.43;;;1.10;;
64633;SDS011;51043;52.406;9.690;2024-02-23T06:11:32;5.03;;;1.80;;
64633;SDS011;51043;52.406;9.690;2024-02-23T06:14:00;7.63;;;1.83;;
64633;SDS011;51043;52.406;9.690;2024-02-23T06:16:29;4.57;;;1.40;;
64633;SDS011;51043;52.406;9.690;2024-02-23T06:18:57;5.07;;;1.50;;
64633;SDS011;51043;52.406;9.690;2024-02-23T06:21:25;2.87;;;1.57;;
64633;SDS011;51043;52.406;9.690;2024-02-23T06:23:55;4.27;;;1.50;;
64633;SDS011;51043;52.406;9.690;2024-02-23T06:26:23;7.43;;;1.40;;
64633;SDS011;51043;52.406;9.690;2024-02-23T06:28:52;3.60;;;1.73;;
64633;SDS011;51043;52.406;9.690;2024-02-23T06:31:21;7.17;;;1.57;;
64633;SDS011;51043;52.406;9.690;2024-02-23T06:33:49;5.87;;;1.67;;
64633;SDS011;51043;52.406;9.690;2024-02-23T06:36:20;7.10;;;2.00;;
64633;SDS011;51043;52.406;9.690;2024-02-23T06:38:49;7.93;;;1.80;;
64633;SDS011;51043;52.406;9.690;2024-02-23T06:41:22;7.60;;;1.60;;
64633;SDS011;51043;52.406;9.690;2024-02-23T06:43:50;3.53;;;1.30;;
64633;SDS011;51043;52.406;9.690;2024-02-23T06:46:19;5.73;;;1.60;;
64633;SDS011;51043;52.406;9.690;2024-02-23T06:48:47;4.93;;;1.77;;
64633;SDS011;51043;52.406;9.690;2024-02-23T06:51:16;5.00;;;1.57;;
64633;SDS011;51043;52.406;9.690;2024-02-23T06:53:44;11.57;;;1.77;;
64633;SDS011;51043;52.406;9.690;2024-02-23T06:56:12;2.90;;;1.33;;
64633;SDS011;51043;52.406;9.690;2024-02-23T06:58:41;4.57;;;1.27;;
64633;SDS011;51043;52.406;9.690;2024-02-23T07:01:09;4.20;;;2.17;;
64633;SDS011;51043;52.406;9.690;2024-02-23T07:03:39;5.47;;;2.07;;
64633;SDS011;51043;52.406;9.690;2024-02-23T07:06:08;4.87;;;1.70;;
64633;SDS011;51043;52.406;9.690;2024-02-23T07:08:37;6.53;;;1.97;;
64633;SDS011;51043;52.406;9.690;2024-02-23T07:11:05;4.83;;;2.00;;
64633;SDS011;51043;52.406;9.690;2024-02-23T07:13:33;6.10;;;1.70;;
64633;SDS011;51043;52.406;9.690;2024-02-23T07:16:03;4.90;;;1.50;;
64633;SDS011;51043;52.406;9.690;2024-02-23T07:18:31;5.23;;;1.37;;
64633;SDS011;51043;52.406;9.690;2024-02-23T07:21:00;5.93;;;1.83;;
64633;SDS011;51043;52.406;9.690;2024-02-23T07:23:29;6.13;;;1.80;;
64633;SDS011;51043;52.406;9.690;2024-02-23T07:26:00;6.13;;;1.83;;
64633;SDS011;51043;52.406;9.690;2024-02-23T07:28:28;2.83;;;2.30;;
64633;SDS011;51043;52.406;9.690;2024-02-23T07:31:04;4.93;;;1.57;;
64633;SDS011;51043;52.406;9.690;2024-02-23T07:33:37;5.07;;;1.40;;
64633;SDS011;51043;52.406;9.690;2024-02-23T07:36:05;4.97;;;1.60;;
64633;SDS011;51043;52.406;9.690;2024-02-23T07:38:35;5.07;;;1.50;;
64633;SDS011;51043;52.406;9.690;2024-02-23T07:41:04;8.10;;;1.80;;
64633;SDS011;51043;52.406;9.690;2024-02-23T07:43:32;6.40;;;1.60;;
64633;SDS011;51043;52.406;9.690;2024-02-23T07:46:02;7.60;;;2.00;;
64633;SDS011;51043;52.406;9.690;2024-02-23T07:48:35;8.27;;;2.07;;
64633;SDS011;51043;52.406;9.690;2024-02-23T07:51:06;5.57;;;1.57;;
64633;SDS011;51043;52.406;9.690;2024-02-23T07:53:34;6.10;;;2.00;;
64633;SDS011;51043;52.406;9.690;2024-02-23T07:56:02;4.70;;;1.50;;
64633;SDS011;51043;52.406;9.690;2024-02-23T07:58:31;6.37;;;1.73;;
64633;SDS011;51043;52.406;9.690;2024-02-23T08:01:00;6.03;;;2.00;;
64633;SDS011;51043;52.406;9.690;2024-02-23T08:03:31;4.23;;;1.40;;
64633;SDS011;51043;52.406;9.690;2024-02-23T08:06:01;9.47;;;1.70;;
64633;SDS011;51043;52.406;9.690;2024-02-23T08:08:29;5.07;;;1.70;;
64633;SDS011;51043;52.406;9.690;2024-02-23T08:11:01;4.87;;;1.67;;
64633;SDS011;51043;52.406;9.690;2024-02-23T08:13:29;4.67;;;1.63;;
64633;SDS011;51043;52.406;9.690;2024-02-23T08:15:58;6.20;;;1.77;;
64633;SDS011;51043;52.406;9.690;2024-02-23T08:18:26;5.53;;;1.73;;
64633;SDS011;51043;52.406;9.690;2024-02-23T08:20:58;6.90;;;1.53;;
64633;SDS011;51043;52.406;9.690;2024-02-23T08:23:31;7.00;;;1.77;;
64633;SDS011;51043;52.406;9.690;2024-02-23T08:26:00;6.40;;;1.63;;
64633;SDS011;51043;52.406;9.690;2024-02-23T08:28:28;4.47;;;1.50;;
64633;SDS011;51043;52.406;9.690;2024-02-23T08:30:57;4.80;;;1.47;;
64633;SDS011;51043;52.406;9.690;2024-02-23T08:33:25;6.33;;;1.73;;
64633;SDS011;51043;52.406;9.690;2024-02-23T08:35:58;5.80;;;1.97;;
64633;SDS011;51043;52.406;9.690;2024-02-23T08:38:26;3.93;;;1.97;;
64633;SDS011;51043;52.406;9.690;2024-02-23T08:40:54;5.07;;;1.67;;
64633;SDS011;51043;52.406;9.690;2024-02-23T08:43:22;6.30;;;1.23;;
64633;SDS011;51043;52.406;9.690;2024-02-23T08:45:50;4.60;;;1.77;;
64633;SDS011;51043;52.406;9.690;2024-02-23T08:48:18;5.37;;;1.83;;
64633;SDS011;51043;52.406;9.690;2024-02-23T08:50:47;6.47;;;1.63;;
64633;SDS011;51043;52.406;9.690;2024-02-23T08:53:19;3.03;;;1.30;;
64633;SDS011;51043;52.406;9.690;2024-02-23T08:55:48;5.33;;;1.57;;
64633;SDS011;51043;52.406;9.690;2024-02-23T08:58:16;3.40;;;1.30;;
64633;SDS011;51043;52.406;9.690;2024-02-23T09:00:44;10.90;;;2.10;;
64633;SDS011;51043;52.406;9.690;2024-02-23T09:03:14;6.93;;;1.67;;
64633;SDS011;51043;52.406;9.690;2024-02-23T09:05:42;4.83;;;1.50;;
64633;SDS011;51043;52.406;9.690;2024-02-23T09:08:13;4.23;;;1.53;;
64633;SDS011;51043;52.406;9.690;2024-02-23T09:10:43;5.20;;;1.60;;
64633;SDS011;51043;52.406;9.690;2024-02-23T09:13:11;3.50;;;1.40;;
64633;SDS011;51043;52.406;9.690;2024-02-23T09:15:39;5.00;;;1.53;;
64633;SDS011;51043;52.406;9.690;2024-02-23T09:18:08;2.27;;;1.20;;
64633;SDS011;51043;52.406;9.690;2024-02-23T09:20:40;6.37;;;1.50;;
64633;SDS011;51043;52.406;9.690;2024-02-23T09:23:09;4.63;;;1.40;;
64633;SDS011;51043;52.406;9.690;2024-02-23T09:25:40;3.97;;;1.50;;
64633;SDS011;51043;52.406;9.690;2024-02-23T09:28:10;2.73;;;1.30;;
64633;SDS011;51043;52.406;9.690;2024-02-23T09:30:40;3.57;;;1.33;;
64633;SDS011;51043;52.406;9.690;2024-02-23T09:33:08;4.83;;;1.50;;
64633;SDS011;51043;52.406;9.690;2024-02-23T09:35:37;5.80;;;1.53;;
64633;SDS011;51043;52.406;9.690;2024-02-23T09:38:05;4.37;;;1.30;;
64633;SDS011;51043;52.406;9.690;2024-02-23T09:40:33;7.10;;;1.67;;
64633;SDS011;51043;52.406;9.690;2024-02-23T09:43:02;4.83;;;1.40;;
64633;SDS011;51043;52.406;9.690;2024-02-23T09:45:35;3.57;;;1.57;;
64633;SDS011;51043;52.406;9.690;2024-02-23T09:48:04;3.97;;;1.20;;
64633;SDS011;51043;52.406;9.690;2024-02-23T09:50:34;9.73;;;1.43;;
64633;SDS011;51043;52.406;9.690;2024-02-23T09:53:04;5.17;;;1.53;;
64633;SDS011;51043;52.406;9.690;2024-02-23T09:55:35;4.93;;;1.07;;
64633;SDS011;51043;52.406;9.690;2024-02-23T09:58:05;3.97;;;1.40;;
64633;SDS011;51043;52.406;9.690;2024-02-23T10:00:35;6.70;;;1.77;;
64633;SDS011;51043;52.406;9.690;2024-02-23T10:03:05;4.30;;;1.30;;
64633;SDS011;51043;52.406;9.690;2024-02-23T10:05:33;2.97;;;1.17;;
64633;SDS011;51043;52.406;9.690;2024-02-23T10:08:02;2.20;;;1.07;;
64633;SDS011;51043;52.406;9.690;2024-02-23T10:10:32;5.37;;;1.37;;
64633;SDS011;51043;52.406;9.690;2024-02-23T10:13:01;7.13;;;1.70;;
64633;SDS011;51043;52.406;9.690;2024-02-23T10:15:32;3.23;;;1.20;;
64633;SDS011;51043;52.406;9.690;2024-02-23T10:18:03;1.20;;;1.00;;
64633;SDS011;51043;52.406;9.690;2024-02-23T10:20:31;2.47;;;1.20;;
64633;SDS011;51043;52.406;9.690;2024-02-23T10:23:01;2.00;;;1.17;;
64633;SDS011;51043;52.406;9.690;2024-02-23T10:25:29;1.70;;;1.00;;
64633;SDS011;51043;52.406;9.690;2024-02-23T10:28:00;3.17;;;1.00;;
64633;SDS011;51043;52.406;9.690;2024-02-23T10:30:29;0.77;;;0.77;;
64633;SDS011;51043;52.406;9.690;2024-02-23T10:33:01;2.83;;;0.90;;
64633;SDS011;51043;52.406;9.690;2024-02-23T10:35:33;2.27;;;1.10;;
64633;SDS011;51043;52.406;9.690;2024-02-23T10:38:07;2.33;;;1.20;;
64633;SDS011;51043;52.406;9.690;2024-02-23T10:40:36;4.97;;;1.30;;
64633;SDS011;51043;52.406;9.690;2024-02-23T10:43:08;2.37;;;1.10;;
64633;SDS011;51043;52.406;9.690;2024-02-23T10:45:40;3.60;;;1.40;;
64633;SDS011;51043;52.406;9.690;2024-02-23T10:48:10;3.00;;;1.27;;
64633;SDS011;51043;52.406;9.690;2024-02-23T10:50:41;1.73;;;1.10;;
64633;SDS011;51043;52.406;9.690;2024-02-23T10:53:10;4.33;;;1.20;;
64633;SDS011;51043;52.406;9.690;2024-02-23T10:55:40;1.97;;;1.40;;
64633;SDS011;51043;52.406;9.690;2024-02-23T10:58:11;2.67;;;1.20;;
64633;SDS011;51043;52.406;9.690;2024-02-23T11:00:42;2.43;;;1.10;;
64633;SDS011;51043;52.406;9.690;2024-02-23T11:03:12;3.63;;;1.47;;
64633;SDS011;51043;52.406;9.690;2024-02-23T11:05:41;2.13;;;1.10;;
64633;SDS011;51043;52.406;9.690;2024-02-23T11:08:11;4.27;;;1.50;;
64633;SDS011;51043;52.406;9.690;2024-02-23T11:10:42;2.97;;;1.10;;
64633;SDS011;51043;52.406;9.690;2024-02-23T11:13:11;1.80;;;1.20;;
64633;SDS011;51043;52.406;9.690;2024-02-23T11:15:43;2.50;;;1.13;;
64633;SDS011;51043;52.406;9.690;2024-02-23T11:18:24;4.60;;;1.23;;
64633;SDS011;51043;52.406;9.690;2024-02-23T11:20:58;3.27;;;1.30;;
64633;SDS011;51043;52.406;9.690;2024-02-23T11:23:38;3.30;;;1.30;;
64633;SDS011;51043;52.406;9.690;2024-02-23T11:26:09;3.03;;;1.20;;
64633;SDS011;51043;52.406;9.690;2024-02-23T11:28:41;3.87;;;1.40;;
64633;SDS011;51043;52.406;9.690;2024-02-23T11:31:14;3.73;;;1.23;;
64633;SDS011;51043;52.406;9.690;2024-02-23T11:33:50;4.23;;;1.20;;
64633;SDS011;51043;52.406;9.690;2024-02-23T11:36:22;3.43;;;1.37;;
64633;SDS011;51043;52.406;9.690;2024-02-23T11:38:54;3.83;;;1.30;;
64633;SDS011;51043;52.406;9.690;2024-02-23T11:41:24;2.83;;;1.20;;
64633;SDS011;51043;52.406;9.690;2024-02-23T11:43:53;3.33;;;1.03;;
64633;SDS011;51043;52.406;9.690;2024-02-23T11:46:24;5.07;;;1.37;;
64633;SDS011;51043;52.406;9.690;2024-02-23T11:48:57;1.57;;;1.00;;
64633;SDS011;51043;52.406;9.690;2024-02-23T11:51:26;1.93;;;1.07;;
64633;SDS011;51043;52.406;9.690;2024-02-23T11:53:56;3.67;;;1.10;;
64633;SDS011;51043;52.406;9.690;2024-02-23T11:56:26;2.07;;;1.20;;
64633;SDS011;51043;52.406;9.690;2024-02-23T11:58:57;3.77;;;1.30;;
64633;SDS011;51043;52.406;9.690;2024-02-23T12:01:28;1.80;;;1.10;;
64633;SDS011;51043;52.406;9.690;2024-02-23T12:03:57;1.80;;;1.00;;
64633;SDS011;51043;52.406;9.690;2024-02-23T12:06:27;3.13;;;1.10;;
64633;SDS011;51043;52.406;9.690;2024-02-23T12:08:59;3.27;;;1.40;;
64633;SDS011;51043;52.406;9.690;2024-02-23T12:11:28;6.73;;;1.63;;
64633;SDS011;51043;52.406;9.690;2024-02-23T12:13:59;4.57;;;1.33;;
64633;SDS011;51043;52.406;9.690;2024-02-23T12:16:30;2.97;;;1.23;;
64633;SDS011;51043;52.406;9.690;2024-02-23T12:19:00;4.50;;;1.40;;
64633;SDS011;51043;52.406;9.690;2024-02-23T12:21:29;2.10;;;1.10;;
64633;SDS011;51043;52.406;9.690;2024-02-23T12:24:03;2.57;;;1.20;;
64633;SDS011;51043;52.406;9.690;2024-02-23T12:26:32;2.23;;;1.13;;
64633;SDS011;51043;52.406;9.690;2024-02-23T12:29:01;2.75;;;1.30;;
64633;SDS011;51043;52.406;9.690;2024-02-23T12:31:32;2.92;;;1.60;;
64633;SDS011;51043;52.406;9.690;2024-02-23T12:34:01;2.50;;;1.20;;
64633;SDS011;51043;52.406;9.690;2024-02-23T12:36:30;3.57;;;1.43;;
64633;SDS011;51043;52.406;9.690;2024-02-23T12:39:01;2.77;;;1.40;;
64633;SDS011;51043;52.406;9.690;2024-02-23T12:41:31;2.67;;;1.40;;
64633;SDS011;51043;52.406;9.690;2024-02-23T12:44:01;3.43;;;1.40;;
64633;SDS011;51043;52.406;9.690;2024-02-23T12:46:29;2.93;;;1.30;;
64633;SDS011;51043;52.406;9.690;2024-02-23T12:49:02;3.33;;;1.27;;
64633;SDS011;51043;52.406;9.690;2024-02-23T12:51:30;1.97;;;1.07;;
64633;SDS011;51043;52.406;9.690;2024-02-23T12:54:02;3.27;;;1.30;;
64633;SDS011;51043;52.406;9.690;2024-02-23T12:56:31;2.40;;;1.27;;
64633;SDS011;51043;52.406;9.690;2024-02-23T12:59:01;5.60;;;1.37;;
64633;SDS011;51043;52.406;9.690;2024-02-23T13:01:29;5.37;;;1.40;;
64633;SDS011;51043;52.406;9.690;2024-02-23T13:04:05;3.60;;;1.47;;
64633;SDS011;51043;52.406;9.690;2024-02-23T13:06:37;2.47;;;1.20;;
64633;SDS011;51043;52.406;9.690;2024-02-23T13:09:06;3.47;;;1.30;;
64633;SDS011;51043;52.406;9.690;2024-02-23T13:11:35;3.53;;;1.40;;
64633;SDS011;51043;52.406;9.690;2024-02-23T13:14:06;3.43;;;1.40;;
64633;SDS011;51043;52.406;9.690;2024-02-23T13:16:38;3.77;;;1.30;;
64633;SDS011;51043;52.406;9.690;2024-02-23T13:19:08;4.83;;;1.47;;
64633;SDS011;51043;52.406;9.690;2024-02-23T13:21:37;3.77;;;1.27;;
64633;SDS011;51043;52.406;9.690;2024-02-23T13:24:08;4.20;;;1.50;;
64633;SDS011;51043;52.406;9.690;2024-02-23T13:26:37;1.30;;;1.03;;
64633;SDS011;51043;52.406;9.690;2024-02-23T13:29:06;3.80;;;1.40;;
64633;SDS011;51043;52.406;9.690;2024-02-23T13:31:42;3.90;;;1.50;;
64633;SDS011;51043;52.406;9.690;2024-02-23T13:34:12;2.13;;;1.30;;
64633;SDS011;51043;52.406;9.690;2024-02-23T13:36:42;4.13;;;1.53;;
64633;SDS011;51043;52.406;9.690;2024-02-23T13:39:10;4.43;;;1.60;;
64633;SDS011;51043;52.406;9.690;2024-02-23T13:41:38;3.90;;;1.50;;
64633;SDS011;51043;52.406;9.690;2024-02-23T13:44:07;4.33;;;1.70;;
64633;SDS011;51043;52.406;9.690;2024-02-23T13:46:35;5.07;;;1.83;;
64633;SDS011;51043;52.406;9.690;2024-02-23T13:49:06;4.77;;;1.80;;
64633;SDS011;51043;52.406;9.690;2024-02-23T13:51:37;6.47;;;1.50;;
64633;SDS011;51043;52.406;9.690;2024-02-23T13:54:05;4.13;;;2.20;;
64633;SDS011;51043;52.406;9.690;2024-02-23T13:56:34;4.27;;;1.90;;
64633;SDS011;51043;52.406;9.690;2024-02-23T13:59:02;5.33;;;1.93;;
64633;SDS011;51043;52.406;9.690;2024-02-23T14:01:30;2.87;;;1.40;;
64633;SDS011;51043;52.406;9.690;2024-02-23T14:03:59;6.70;;;1.33;;
64633;SDS011;51043;52.406;9.690;2024-02-23T14:06:30;3.30;;;1.50;;
64633;SDS011;51043;52.406;9.690;2024-02-23T14:09:00;5.10;;;1.93;;
64633;SDS011;51043;52.406;9.690;2024-02-23T14:11:29;5.03;;;1.60;;
64633;SDS011;51043;52.406;9.690;2024-02-23T14:13:58;4.23;;;1.50;;
64633;SDS011;51043;52.406;9.690;2024-02-23T14:16:28;4.53;;;1.50;;
64633;SDS011;51043;52.406;9.690;2024-02-23T14:19:00;3.60;;;1.20;;
64633;SDS011;51043;52.406;9.690;2024-02-23T14:21:29;4.50;;;1.80;;
64633;SDS011;51043;52.406;9.690;2024-02-23T14:24:01;4.87;;;1.37;;
64633;SDS011;51043;52.406;9.690;2024-02-23T14:26:30;7.33;;;3.63;;
64633;SDS011;51043;52.406;9.690;2024-02-23T14:29:01;3.80;;;1.83;;
64633;SDS011;51043;52.406;9.690;2024-02-23T14:31:30;5.60;;;1.77;;
64633;SDS011;51043;52.406;9.690;2024-02-23T14:33:59;2.83;;;1.40;;
64633;SDS011;51043;52.406;9.690;2024-02-23T14:36:27;3.83;;;1.37;;
64633;SDS011;51043;52.406;9.690;2024-02-23T14:39:02;6.33;;;1.83;;
64633;SDS011;51043;52.406;9.690;2024-02-23T14:41:32;4.83;;;1.33;;
64633;SDS011;51043;52.406;9.690;2024-02-23T14:44:02;4.43;;;1.50;;
64633;SDS011;51043;52.406;9.690;2024-02-23T14:46:32;2.40;;;1.40;;
64633;SDS011;51043;52.406;9.690;2024-02-23T14:49:01;4.83;;;1.50;;
64633;SDS011;51043;52.406;9.690;2024-02-23T14:51:36;4.73;;;1.60;;
64633;SDS011;51043;52.406;9.690;2024-02-23T14:54:05;4.90;;;1.40;;
64633;SDS011;51043;52.406;9.690;2024-02-23T14:56:33;2.67;;;1.50;;
64633;SDS011;51043;52.406;9.690;2024-02-23T14:59:01;4.60;;;1.53;;
64633;SDS011;51043;52.406;9.690;2024-02-23T15:01:31;5.20;;;1.50;;